Kaiser — NHJK — position and weather

sailwx.info

Track history (hours):
 
Tides and Currents Weather Stations Pressure Air Temp Water Temp Dewpoint Dewpoint Depression Visibility Wind Speed Wind Dir Waves Ship Positions

Kaiser

Last reported at 2017-Jan-19 14:19 UTC. Time now 2017-Jan-20 01:40 UTC.
Position N 32°33' W 117°21'.

; draft 8.5 m.

Type: Tanker. MMSI: 303849000.

Date/timePositionNaut miles runAvg speedWind from/ knotsBaromVisibWave heightAir tempDewpointWater temp
2017-Jan-19 14:19N 32°33' W 117°21'7 9.0
2017-Jan-19 13:34N 32°30' W 117°28'2 2.4
2017-Jan-19 12:33N 32°32' W 117°31'3 2.5
2017-Jan-19 11:33N 32°32' W 117°34'9 8.8
2017-Jan-19 10:33N 32°31' W 117°24'7 6.8
2017-Jan-19 09:33N 32°31' W 117°32'2 2.2
2017-Jan-19 08:33N 32°31' W 117°34'9 9.0
2017-Jan-19 07:33N 32°30' W 117°24'8 8.3
2017-Jan-19 06:33N 32°30' W 117°33'3 3.0
2017-Jan-19 05:33N 32°30' W 117°30'3 3.2
2017-Jan-19 04:33N 32°30' W 117°26'9 8.7
2017-Jan-19 03:33N 32°33' W 117°36'9 8.6
2017-Jan-19 02:33N 32°36' W 117°46'9 9.1
2017-Jan-19 01:33N 32°36' W 117°56'9 8.6
2017-Jan-19 00:33N 32°35' W 118°06'4 4.2
2017-Jan-18 23:33N 32°36' W 118°11'1816.6
2017-Jan-18 22:29N 32°36' W 118°33'2 0.9
2017-Jan-18 20:33N 32°36' W 118°31'11 8.2
2017-Jan-18 19:14N 32°36' W 118°43'18 6.6
2017-Jan-18 16:30N 32°36' W 118°22'1212.3
2017-Jan-18 15:34N 32°36' W 118°08'1211.8
2017-Jan-18 14:34N 32°36' W 117°54'9 9.2
2017-Jan-18 13:32N 32°36' W 117°43'4 4.3
2017-Jan-18 12:34N 32°37' W 117°48'6 5.5
2017-Jan-18 11:33N 32°36' W 117°41'1 0.9
2017-Jan-18 10:34N 32°36' W 117°42'7 7.2
2017-Jan-18 09:33N 32°36' W 117°51'7 6.8
2017-Jan-18 08:33N 32°36' W 117°59'7 6.6
2017-Jan-18 07:33N 32°35' W 117°51'8 7.6
2017-Jan-18 06:33N 32°36' W 117°42'4 4.4
2017-Jan-18 05:33N 32°36' W 117°47'7 7.2
2017-Jan-18 04:33N 32°36' W 117°56'7 7.3
2017-Jan-18 03:33N 32°36' W 118°05'8 7.7
2017-Jan-18 02:34N 32°36' W 118°14'8 7.7
2017-Jan-18 01:32N 32°36' W 118°23'7 7.6
2017-Jan-18 00:34N 32°35' W 118°32'9 9.3
2017-Jan-17 23:34N 32°36' W 118°21'1212.4
2017-Jan-17 22:34N 32°36' W 118°06'1110.9
2017-Jan-17 21:34N 32°36' W 117°53'1110.8
2017-Jan-17 20:34N 32°36' W 117°40'2 2.0
2017-Jan-17 19:33N 32°36' W 117°38'8 7.5
2017-Jan-17 18:34N 32°43' W 117°34'7 6.8
2017-Jan-17 17:34N 32°50' W 117°32'6 6.5
2017-Jan-17 16:33N 32°56' W 117°30'7 6.7
2017-Jan-17 15:34N 33°02' W 117°28'1 1.3
2017-Jan-17 14:34N 33°04' W 117°28'7 6.8
2017-Jan-17 13:33N 32°57' W 117°27'6 6.5
2017-Jan-17 12:34N 32°51' W 117°25'6 6.1
2017-Jan-17 11:33N 32°57' W 117°26'7 6.9
2017-Jan-17 10:34N 33°03' W 117°27'5 4.8
2017-Jan-17 09:34N 32°59' W 117°27'6 6.5
2017-Jan-17 08:33N 32°52' W 117°25'4 4.1
2017-Jan-17 07:33N 32°56' W 117°26'7 7.1
2017-Jan-17 06:34N 33°03' W 117°28'5 4.6
2017-Jan-17 05:34N 32°59' W 117°27'6 6.3
2017-Jan-17 04:34N 32°52' W 117°25'7 6.6
2017-Jan-17 03:34N 32°59' W 117°26'7 7.2
2017-Jan-17 02:34N 33°06' W 117°28'3 3.3
2017-Jan-17 01:34N 33°03' W 117°27'6 6.2
2017-Jan-17 00:34N 32°57' W 117°26'6 5.6
2017-Jan-16 23:34N 32°51' W 117°25'7 7.0
2017-Jan-16 22:34N 32°58' W 117°27'7 6.7
2017-Jan-16 21:34N 33°05' W 117°28'6 6.2
2017-Jan-16 20:34N 32°59' W 117°27'6 6.5
2017-Jan-16 19:34N 32°52' W 117°25'6 6.3
2017-Jan-16 18:34N 32°58' W 117°26'7 6.7
2017-Jan-16 17:33N 33°05' W 117°28'6 6.4
2017-Jan-16 16:34N 32°59' W 117°27'7 6.8
2017-Jan-16 15:34N 32°52' W 117°26'6 5.7
2017-Jan-16 14:33N 32°58' W 117°26'7 6.6
2017-Jan-16 13:34N 33°04' W 117°28'5 4.7
2017-Jan-16 12:34N 32°59' W 117°27'7 6.7
2017-Jan-16 11:34N 32°53' W 117°25'4 4.5
2017-Jan-16 10:34N 32°57' W 117°27'4 4.3
2017-Jan-16 09:33N 33°02' W 117°27'7 6.7
2017-Jan-16 08:34N 32°55' W 117°26'0 0.4
2017-Jan-16 07:34N 32°55' W 117°26'7 6.7
2017-Jan-16 06:34N 33°02' W 117°27'3 3.0
2017-Jan-16 05:34N 33°05' W 117°28'7 6.9
2017-Jan-16 04:34N 32°58' W 117°26'6 5.9
2017-Jan-16 03:34N 32°52' W 117°26'7 6.8
2017-Jan-16 02:33N 32°59' W 117°27'7 6.7
2017-Jan-16 01:33N 33°05' W 117°28'4 4.2
2017-Jan-16 00:34N 33°01' W 117°27'7 6.7
2017-Jan-15 23:33N 32°55' W 117°26'4 4.5
2017-Jan-15 22:34N 32°59' W 117°27'6 6.1
2017-Jan-15 21:33N 33°05' W 117°28'7 6.8
2017-Jan-15 20:34N 32°58' W 117°27'7 6.8
2017-Jan-15 19:34N 32°52' W 117°27'5 4.6
2017-Jan-15 18:33N 32°56' W 117°27'7 6.6
2017-Jan-15 17:34N 33°03' W 117°29'1 1.1
2017-Jan-15 16:34N 33°02' W 117°28'7 6.8
2017-Jan-15 15:34N 32°55' W 117°27'1 1.4
2017-Jan-15 14:33N 32°54' W 117°26'7 6.9
2017-Jan-15 13:33N 33°01' W 117°27'2 2.3
2017-Jan-15 12:34N 33°03' W 117°28'7 7.4
2017-Jan-15 11:34N 32°55' W 117°27'4 4.0
2017-Jan-15 10:34N 32°59' W 117°28'6 5.9
2017-Jan-15 09:34N 33°05' W 117°28'7 7.3
2017-Jan-15 08:34N 32°58' W 117°28'7 7.4
2017-Jan-15 07:34N 32°51' W 117°31'7 7.3
2017-Jan-15 06:34N 32°44' W 117°34'8 7.7
2017-Jan-15 05:34N 32°37' W 117°37'7 6.9
2017-Jan-15 04:33N 32°36' W 117°45'7 7.3
2017-Jan-15 03:33N 32°36' W 117°54'8 7.7
2017-Jan-15 02:34N 32°36' W 118°03'8 7.6
2017-Jan-15 01:34N 32°36' W 118°12'8 7.7
2017-Jan-15 00:34N 32°36' W 118°21'9 8.9
2017-Jan-14 23:33N 32°29' W 118°28'1616.4
2017-Jan-14 22:33N 32°15' W 118°19'1313.3
2017-Jan-14 21:33N 32°04' W 118°09'1312.6
2017-Jan-14 20:33N 31°54' W 117°59'41 2.0
2017-Jan-13 23:33N 32°29' W 117°34'7 6.7
2017-Jan-13 22:33N 32°35' W 117°30'7 6.6
2017-Jan-13 21:34N 32°36' W 117°23'8 8.4
2017-Jan-13 20:33N 32°40' W 117°14'3 3.3
2017-Jan-13 19:33N 32°42' W 117°11'0 0.0
2017-Jan-13 18:32N 32°42' W 117°11'0 0.0
2017-Jan-13 17:32N 32°42' W 117°11'0 0.0
2017-Jan-13 16:32N 32°42' W 117°11'0 0.0
2017-Jan-13 15:32N 32°42' W 117°11'0 0.0
2017-Jan-13 14:32N 32°42' W 117°11'0 0.0
2017-Jan-13 13:32N 32°42' W 117°11'0 0.1
2017-Jan-13 12:32N 32°42' W 117°11'0 0.1
2017-Jan-13 11:32N 32°42' W 117°11'0 0.0
2017-Jan-13 10:32N 32°42' W 117°11'0 0.0
2017-Jan-13 09:32N 32°42' W 117°11'0 0.0
2017-Jan-13 08:32N 32°42' W 117°11'0 0.0
2017-Jan-13 07:32N 32°42' W 117°11'0 0.0
2017-Jan-13 06:32N 32°42' W 117°11'0 0.0
2017-Jan-13 05:32N 32°42' W 117°11'0 0.1
2017-Jan-13 04:32N 32°42' W 117°11'0 0.1
2017-Jan-13 03:32N 32°42' W 117°11'0 0.0
2017-Jan-13 02:32N 32°42' W 117°11'0 0.0
2017-Jan-13 01:32N 32°42' W 117°11'0 0.0
2017-Jan-13 00:32N 32°42' W 117°11'0 0.0
2017-Jan-12 23:32N 32°42' W 117°11'0 0.2
2017-Jan-12 22:33N 32°43' W 117°11'8 7.8
2017-Jan-12 21:34N 32°35' W 117°13'1414.0
2017-Jan-12 20:33N 32°36' W 117°30'1616.5
2017-Jan-12 19:33N 32°36' W 117°49'1717.2
2017-Jan-12 18:33N 32°36' W 118°10'39 2.9
2017-Jan-12 05:05N 32°36' W 118°56'6 2.9
2017-Jan-12 03:06N 32°36' W 118°49'15 8.9
2017-Jan-12 01:25N 32°36' W 118°31'8 9.2
2017-Jan-12 00:33N 32°36' W 118°22'9 8.9
2017-Jan-11 23:33N 32°36' W 118°11'9 8.9
2017-Jan-11 22:33N 32°36' W 118°00'1010.4
2017-Jan-11 21:33N 32°36' W 117°48'6 6.0
2017-Jan-11 20:33N 32°36' W 117°55'1211.9
2017-Jan-11 19:33N 32°36' W 118°09'5410.7
2017-Jan-11 14:31N 32°36' W 119°14'10 9.4
2017-Jan-11 13:24N 32°35' W 119°01'33 2.5
2017-Jan-11 00:10N 32°36' W 118°22'6 9.0
2017-Jan-10 23:33N 32°36' W 118°16'9 9.1
2017-Jan-10 22:33N 32°36' W 118°05'9 9.2
2017-Jan-10 21:33N 32°36' W 117°54'10 9.6
2017-Jan-10 20:33N 32°36' W 117°43'10 9.8
2017-Jan-10 19:33N 32°36' W 117°31'9 9.4
2017-Jan-10 18:33N 32°36' W 117°20'8 7.7
2017-Jan-10 17:33N 32°42' W 117°14'0 0.2
2017-Jan-10 16:31N 32°42' W 117°14'0 0.0
2017-Jan-10 15:31N 32°42' W 117°14'0 0.0
2017-Jan-10 14:31N 32°42' W 117°14'0 0.0
2017-Jan-10 13:31N 32°42' W 117°14'0 0.0
2017-Jan-10 12:31N 32°42' W 117°14'0 0.0
2017-Jan-10 11:28N 32°42' W 117°14'0 0.0
2017-Jan-10 10:31N 32°42' W 117°14'0 0.0
2017-Jan-10 09:31N 32°42' W 117°14'0 0.0
2017-Jan-10 08:31N 32°42' W 117°14'0 0.0
2017-Jan-10 07:28N 32°42' W 117°14'0 0.0
2017-Jan-10 06:31N 32°42' W 117°14'0 0.0
2017-Jan-10 05:31N 32°42' W 117°14'0 0.0
2017-Jan-10 04:28N 32°42' W 117°14'0 0.0
2017-Jan-10 03:31N 32°42' W 117°14'0 0.0
2017-Jan-10 02:31N 32°42' W 117°14'0 0.0
2017-Jan-10 01:31N 32°42' W 117°14'0 0.0
2017-Jan-10 00:31N 32°42' W 117°14'0 0.0
2017-Jan-09 23:31N 32°42' W 117°14'0 0.0
2017-Jan-09 22:31N 32°42' W 117°14'0 0.0
2017-Jan-09 21:31N 32°42' W 117°14'0 0.0
2017-Jan-09 20:31N 32°42' W 117°14'0 0.0
2017-Jan-09 19:31N 32°42' W 117°14'0 0.0
2017-Jan-09 18:31N 32°42' W 117°14'0 0.0
2017-Jan-09 17:31N 32°42' W 117°14'3 2.8
2017-Jan-09 16:33N 32°42' W 117°11'0 0.1
2017-Jan-09 15:31N 32°42' W 117°11'0 0.0
2017-Jan-09 14:31N 32°42' W 117°11'  
Track history (hours):
 
Tides and Currents Weather Stations Pressure Air Temp Water Temp Dewpoint Dewpoint Depression Visibility Wind Speed Wind Dir Waves Ship Positions

Kaiser

Last reported at 2017-Jan-19 14:19 UTC. Time now 2017-Jan-20 01:40 UTC.
Position N 32°33' W 117°21'.

; draft 8.5 m.

Type: Tanker. MMSI: 303849000.

Date/timePositionNaut miles runAvg speedWind from/ knotsBaromVisibWave heightAir tempDewpointWater temp
2017-Jan-19 14:19N 32°33' W 117°21'7 9.0
2017-Jan-19 13:34N 32°30' W 117°28'2 2.4
2017-Jan-19 12:33N 32°32' W 117°31'3 2.5
2017-Jan-19 11:33N 32°32' W 117°34'9 8.8
2017-Jan-19 10:33N 32°31' W 117°24'7 6.8
2017-Jan-19 09:33N 32°31' W 117°32'2 2.2
2017-Jan-19 08:33N 32°31' W 117°34'9 9.0
2017-Jan-19 07:33N 32°30' W 117°24'8 8.3
2017-Jan-19 06:33N 32°30' W 117°33'3 3.0
2017-Jan-19 05:33N 32°30' W 117°30'3 3.2
2017-Jan-19 04:33N 32°30' W 117°26'9 8.7
2017-Jan-19 03:33N 32°33' W 117°36'9 8.6
2017-Jan-19 02:33N 32°36' W 117°46'9 9.1
2017-Jan-19 01:33N 32°36' W 117°56'9 8.6
2017-Jan-19 00:33N 32°35' W 118°06'4 4.2
2017-Jan-18 23:33N 32°36' W 118°11'1816.6
2017-Jan-18 22:29N 32°36' W 118°33'2 0.9
2017-Jan-18 20:33N 32°36' W 118°31'11 8.2
2017-Jan-18 19:14N 32°36' W 118°43'18 6.6
2017-Jan-18 16:30N 32°36' W 118°22'1212.3
2017-Jan-18 15:34N 32°36' W 118°08'1211.8
2017-Jan-18 14:34N 32°36' W 117°54'9 9.2
2017-Jan-18 13:32N 32°36' W 117°43'4 4.3
2017-Jan-18 12:34N 32°37' W 117°48'6 5.5
2017-Jan-18 11:33N 32°36' W 117°41'1 0.9
2017-Jan-18 10:34N 32°36' W 117°42'7 7.2
2017-Jan-18 09:33N 32°36' W 117°51'7 6.8
2017-Jan-18 08:33N 32°36' W 117°59'7 6.6
2017-Jan-18 07:33N 32°35' W 117°51'8 7.6
2017-Jan-18 06:33N 32°36' W 117°42'4 4.4
2017-Jan-18 05:33N 32°36' W 117°47'7 7.2
2017-Jan-18 04:33N 32°36' W 117°56'7 7.3
2017-Jan-18 03:33N 32°36' W 118°05'8 7.7
2017-Jan-18 02:34N 32°36' W 118°14'8 7.7
2017-Jan-18 01:32N 32°36' W 118°23'7 7.6
2017-Jan-18 00:34N 32°35' W 118°32'9 9.3
2017-Jan-17 23:34N 32°36' W 118°21'1212.4
2017-Jan-17 22:34N 32°36' W 118°06'1110.9
2017-Jan-17 21:34N 32°36' W 117°53'1110.8
2017-Jan-17 20:34N 32°36' W 117°40'2 2.0
2017-Jan-17 19:33N 32°36' W 117°38'8 7.5
2017-Jan-17 18:34N 32°43' W 117°34'7 6.8
2017-Jan-17 17:34N 32°50' W 117°32'6 6.5
2017-Jan-17 16:33N 32°56' W 117°30'7 6.7
2017-Jan-17 15:34N 33°02' W 117°28'1 1.3
2017-Jan-17 14:34N 33°04' W 117°28'7 6.8
2017-Jan-17 13:33N 32°57' W 117°27'6 6.5
2017-Jan-17 12:34N 32°51' W 117°25'6 6.1
2017-Jan-17 11:33N 32°57' W 117°26'7 6.9
2017-Jan-17 10:34N 33°03' W 117°27'5 4.8
2017-Jan-17 09:34N 32°59' W 117°27'6 6.5
2017-Jan-17 08:33N 32°52' W 117°25'4 4.1
2017-Jan-17 07:33N 32°56' W 117°26'7 7.1
2017-Jan-17 06:34N 33°03' W 117°28'5 4.6
2017-Jan-17 05:34N 32°59' W 117°27'6 6.3
2017-Jan-17 04:34N 32°52' W 117°25'7 6.6
2017-Jan-17 03:34N 32°59' W 117°26'7 7.2
2017-Jan-17 02:34N 33°06' W 117°28'3 3.3
2017-Jan-17 01:34N 33°03' W 117°27'6 6.2
2017-Jan-17 00:34N 32°57' W 117°26'6 5.6
2017-Jan-16 23:34N 32°51' W 117°25'7 7.0
2017-Jan-16 22:34N 32°58' W 117°27'7 6.7
2017-Jan-16 21:34N 33°05' W 117°28'6 6.2
2017-Jan-16 20:34N 32°59' W 117°27'6 6.5
2017-Jan-16 19:34N 32°52' W 117°25'6 6.3
2017-Jan-16 18:34N 32°58' W 117°26'7 6.7
2017-Jan-16 17:33N 33°05' W 117°28'6 6.4
2017-Jan-16 16:34N 32°59' W 117°27'7 6.8
2017-Jan-16 15:34N 32°52' W 117°26'6 5.7
2017-Jan-16 14:33N 32°58' W 117°26'7 6.6
2017-Jan-16 13:34N 33°04' W 117°28'5 4.7
2017-Jan-16 12:34N 32°59' W 117°27'7 6.7
2017-Jan-16 11:34N 32°53' W 117°25'4 4.5
2017-Jan-16 10:34N 32°57' W 117°27'4 4.3
2017-Jan-16 09:33N 33°02' W 117°27'7 6.7
2017-Jan-16 08:34N 32°55' W 117°26'0 0.4
2017-Jan-16 07:34N 32°55' W 117°26'7 6.7
2017-Jan-16 06:34N 33°02' W 117°27'3 3.0
2017-Jan-16 05:34N 33°05' W 117°28'7 6.9
2017-Jan-16 04:34N 32°58' W 117°26'6 5.9
2017-Jan-16 03:34N 32°52' W 117°26'7 6.8
2017-Jan-16 02:33N 32°59' W 117°27'7 6.7
2017-Jan-16 01:33N 33°05' W 117°28'4 4.2
2017-Jan-16 00:34N 33°01' W 117°27'7 6.7
2017-Jan-15 23:33N 32°55' W 117°26'4 4.5
2017-Jan-15 22:34N 32°59' W 117°27'6 6.1
2017-Jan-15 21:33N 33°05' W 117°28'7 6.8
2017-Jan-15 20:34N 32°58' W 117°27'7 6.8
2017-Jan-15 19:34N 32°52' W 117°27'5 4.6
2017-Jan-15 18:33N 32°56' W 117°27'7 6.6
2017-Jan-15 17:34N 33°03' W 117°29'1 1.1
2017-Jan-15 16:34N 33°02' W 117°28'7 6.8
2017-Jan-15 15:34N 32°55' W 117°27'1 1.4
2017-Jan-15 14:33N 32°54' W 117°26'7 6.9
2017-Jan-15 13:33N 33°01' W 117°27'2 2.3
2017-Jan-15 12:34N 33°03' W 117°28'7 7.4
2017-Jan-15 11:34N 32°55' W 117°27'4 4.0
2017-Jan-15 10:34N 32°59' W 117°28'6 5.9
2017-Jan-15 09:34N 33°05' W 117°28'7 7.3
2017-Jan-15 08:34N 32°58' W 117°28'7 7.4
2017-Jan-15 07:34N 32°51' W 117°31'7 7.3
2017-Jan-15 06:34N 32°44' W 117°34'8 7.7
2017-Jan-15 05:34N 32°37' W 117°37'7 6.9
2017-Jan-15 04:33N 32°36' W 117°45'7 7.3
2017-Jan-15 03:33N 32°36' W 117°54'8 7.7
2017-Jan-15 02:34N 32°36' W 118°03'8 7.6
2017-Jan-15 01:34N 32°36' W 118°12'8 7.7
2017-Jan-15 00:34N 32°36' W 118°21'9 8.9
2017-Jan-14 23:33N 32°29' W 118°28'1616.4
2017-Jan-14 22:33N 32°15' W 118°19'1313.3
2017-Jan-14 21:33N 32°04' W 118°09'1312.6
2017-Jan-14 20:33N 31°54' W 117°59'41 2.0
2017-Jan-13 23:33N 32°29' W 117°34'7 6.7
2017-Jan-13 22:33N 32°35' W 117°30'7 6.6
2017-Jan-13 21:34N 32°36' W 117°23'8 8.4
2017-Jan-13 20:33N 32°40' W 117°14'3 3.3
2017-Jan-13 19:33N 32°42' W 117°11'0 0.0
2017-Jan-13 18:32N 32°42' W 117°11'0 0.0
2017-Jan-13 17:32N 32°42' W 117°11'0 0.0
2017-Jan-13 16:32N 32°42' W 117°11'0 0.0
2017-Jan-13 15:32N 32°42' W 117°11'0 0.0
2017-Jan-13 14:32N 32°42' W 117°11'0 0.0
2017-Jan-13 13:32N 32°42' W 117°11'0 0.1
2017-Jan-13 12:32N 32°42' W 117°11'0 0.1
2017-Jan-13 11:32N 32°42' W 117°11'0 0.0
2017-Jan-13 10:32N 32°42' W 117°11'0 0.0
2017-Jan-13 09:32N 32°42' W 117°11'0 0.0
2017-Jan-13 08:32N 32°42' W 117°11'0 0.0
2017-Jan-13 07:32N 32°42' W 117°11'0 0.0
2017-Jan-13 06:32N 32°42' W 117°11'0 0.0
2017-Jan-13 05:32N 32°42' W 117°11'0 0.1
2017-Jan-13 04:32N 32°42' W 117°11'0 0.1
2017-Jan-13 03:32N 32°42' W 117°11'0 0.0
2017-Jan-13 02:32N 32°42' W 117°11'0 0.0
2017-Jan-13 01:32N 32°42' W 117°11'0 0.0
2017-Jan-13 00:32N 32°42' W 117°11'0 0.0
2017-Jan-12 23:32N 32°42' W 117°11'0 0.2
2017-Jan-12 22:33N 32°43' W 117°11'8 7.8
2017-Jan-12 21:34N 32°35' W 117°13'1414.0
2017-Jan-12 20:33N 32°36' W 117°30'1616.5
2017-Jan-12 19:33N 32°36' W 117°49'1717.2
2017-Jan-12 18:33N 32°36' W 118°10'39 2.9
2017-Jan-12 05:05N 32°36' W 118°56'6 2.9
2017-Jan-12 03:06N 32°36' W 118°49'15 8.9
2017-Jan-12 01:25N 32°36' W 118°31'8 9.2
2017-Jan-12 00:33N 32°36' W 118°22'9 8.9
2017-Jan-11 23:33N 32°36' W 118°11'9 8.9
2017-Jan-11 22:33N 32°36' W 118°00'1010.4
2017-Jan-11 21:33N 32°36' W 117°48'6 6.0
2017-Jan-11 20:33N 32°36' W 117°55'1211.9
2017-Jan-11 19:33N 32°36' W 118°09'5410.7
2017-Jan-11 14:31N 32°36' W 119°14'10 9.4
2017-Jan-11 13:24N 32°35' W 119°01'33 2.5
2017-Jan-11 00:10N 32°36' W 118°22'6 9.0
2017-Jan-10 23:33N 32°36' W 118°16'9 9.1
2017-Jan-10 22:33N 32°36' W 118°05'9 9.2
2017-Jan-10 21:33N 32°36' W 117°54'10 9.6
2017-Jan-10 20:33N 32°36' W 117°43'10 9.8
2017-Jan-10 19:33N 32°36' W 117°31'9 9.4
2017-Jan-10 18:33N 32°36' W 117°20'8 7.7
2017-Jan-10 17:33N 32°42' W 117°14'0 0.2
2017-Jan-10 16:31N 32°42' W 117°14'0 0.0
2017-Jan-10 15:31N 32°42' W 117°14'0 0.0
2017-Jan-10 14:31N 32°42' W 117°14'0 0.0
2017-Jan-10 13:31N 32°42' W 117°14'0 0.0
2017-Jan-10 12:31N 32°42' W 117°14'0 0.0
2017-Jan-10 11:28N 32°42' W 117°14'0 0.0
2017-Jan-10 10:31N 32°42' W 117°14'0 0.0
2017-Jan-10 09:31N 32°42' W 117°14'0 0.0
2017-Jan-10 08:31N 32°42' W 117°14'0 0.0
2017-Jan-10 07:28N 32°42' W 117°14'0 0.0
2017-Jan-10 06:31N 32°42' W 117°14'0 0.0
2017-Jan-10 05:31N 32°42' W 117°14'0 0.0
2017-Jan-10 04:28N 32°42' W 117°14'0 0.0
2017-Jan-10 03:31N 32°42' W 117°14'0 0.0
2017-Jan-10 02:31N 32°42' W 117°14'0 0.0
2017-Jan-10 01:31N 32°42' W 117°14'0 0.0
2017-Jan-10 00:31N 32°42' W 117°14'0 0.0
2017-Jan-09 23:31N 32°42' W 117°14'0 0.0
2017-Jan-09 22:31N 32°42' W 117°14'0 0.0
2017-Jan-09 21:31N 32°42' W 117°14'0 0.0
2017-Jan-09 20:31N 32°42' W 117°14'0 0.0
2017-Jan-09 19:31N 32°42' W 117°14'0 0.0
2017-Jan-09 18:31N 32°42' W 117°14'0 0.0
2017-Jan-09 17:31N 32°42' W 117°14'3 2.8
2017-Jan-09 16:33N 32°42' W 117°11'0 0.1
2017-Jan-09 15:31N 32°42' W 117°11'0 0.0
2017-Jan-09 14:31N 32°42' W 117°11'  

Dump ship's entire track history